Time;durP1;ratioP1;P1;durP2;ratioP2;P2;SDS_P1;SDS_P2;PMS_P1;PMS_P2;Temp;Humidity;BMP_temperature;BMP_pressure;BME280_temperature;BME280_humidity;BME280_pressure;Samples;Min_cycle;Max_cycle;Signal;HPM_P1;HPM_P2
2023/01/08 00:00:50;;;;;;;;;;;7.20;99.90;;;;;;5077620;28;19908;-69
2023/01/08 00:03:15;;;;;;;;;;;7.20;99.90;;;;;;5077561;28;19955;-69
2023/01/08 00:05:41;;;;;;;;;;;7.20;99.90;;;;;;5077232;28;19917;-68
2023/01/08 00:08:07;;;;;;;;;;;7.30;99.90;;;;;;5077038;28;19924;-69
2023/01/08 00:10:33;;;;;;;;;;;7.20;99.90;;;;;;5077346;28;19971;-69
2023/01/08 00:12:59;;;;;;;;;;;7.40;99.90;;;;;;5077107;28;19909;-69
2023/01/08 00:15:24;;;;;;;;;;;7.40;99.90;;;;;;5077312;28;19961;-70
2023/01/08 00:17:50;;;;;;;;;;;7.40;99.90;;;;;;5076960;28;19957;-69
2023/01/08 00:20:15;;;;;;;;;;;7.60;99.90;;;;;;5076950;28;19959;-69
2023/01/08 00:22:41;;;;;;;;;;;7.60;99.90;;;;;;5076934;28;20360;-69
2023/01/08 00:25:07;;;;;;;;;;;7.70;99.90;;;;;;5076776;28;19970;-69
2023/01/08 00:27:32;;;;;;;;;;;7.90;99.90;;;;;;5076711;28;19920;-68
2023/01/08 00:29:58;;;;;;;;;;;7.80;99.90;;;;;;5076972;28;19958;-70
2023/01/08 00:32:23;;;;;;;;;;;7.90;99.90;;;;;;5076712;28;19947;-68
2023/01/08 00:34:49;;;;;;;;;;;7.70;99.90;;;;;;5076977;28;19909;-69
2023/01/08 00:37:17;;;;;;;;;;;7.60;99.90;;;;;;5076892;28;19958;-68
2023/01/08 00:39:43;;;;;;;;;;;7.50;99.90;;;;;;5077078;28;19909;-69
2023/01/08 00:42:09;;;;;;;;;;;7.50;99.90;;;;;;5076819;28;19962;-69
2023/01/08 00:44:35;;;;;;;;;;;7.50;99.90;;;;;;5077110;28;19908;-69
2023/01/08 00:47:00;;;;;;;;;;;7.40;99.90;;;;;;5076467;28;20321;-69
2023/01/08 00:49:26;;;;;;;;;;;7.40;99.90;;;;;;5076614;28;19916;-69
2023/01/08 00:51:51;;;;;;;;;;;7.40;99.90;;;;;;5076377;28;19912;-68
2023/01/08 00:54:17;;;;;;;;;;;7.50;99.90;;;;;;5076888;28;20349;-69
2023/01/08 00:56:42;;;;;;;;;;;7.50;99.90;;;;;;5076581;28;19908;-68
2023/01/08 00:59:08;;;;;;;;;;;7.40;99.90;;;;;;5076243;28;19955;-68
2023/01/08 01:01:33;;;;;;;;;;;7.40;99.90;;;;;;5076488;28;20353;-68
2023/01/08 01:03:59;;;;;;;;;;;7.70;99.90;;;;;;5076155;28;20373;-69
2023/01/08 01:06:24;;;;;;;;;;;7.70;99.90;;;;;;5076191;28;19962;-69
2023/01/08 01:08:50;;;;;;;;;;;7.70;99.90;;;;;;5076014;28;19913;-68
2023/01/08 01:11:17;;;;;;;;;;;7.70;99.90;;;;;;5075637;28;19909;-68
2023/01/08 01:13:43;;;;;;;;;;;7.60;99.90;;;;;;5076013;28;20275;-69
2023/01/08 01:16:08;;;;;;;;;;;7.60;99.90;;;;;;5076237;28;19908;-68
2023/01/08 01:18:34;;;;;;;;;;;7.60;99.90;;;;;;5076183;28;19909;-69
2023/01/08 01:21:00;;;;;;;;;;;7.40;99.90;;;;;;5075845;28;19916;-69
2023/01/08 01:23:25;;;;;;;;;;;7.20;99.90;;;;;;5076063;28;19916;-69
2023/01/08 01:25:51;;;;;;;;;;;7.40;99.90;;;;;;5075744;28;19915;-68
2023/01/08 01:28:16;;;;;;;;;;;7.40;99.90;;;;;;5075957;28;20296;-69
2023/01/08 01:30:42;;;;;;;;;;;7.50;99.90;;;;;;5075585;28;20007;-69
2023/01/08 01:33:07;;;;;;;;;;;7.50;99.90;;;;;;5075652;28;20279;-69
2023/01/08 01:35:33;;;;;;;;;;;7.50;99.90;;;;;;5075867;28;20407;-69
2023/01/08 01:37:58;;;;;;;;;;;7.70;99.90;;;;;;5075529;28;19909;-69
2023/01/08 01:40:24;;;;;;;;;;;7.50;99.90;;;;;;5075450;28;19959;-68
2023/01/08 01:42:49;;;;;;;;;;;7.30;99.90;;;;;;5075696;28;19916;-69
2023/01/08 01:45:22;;;;;;;;;;;7.00;99.90;;;;;;5075657;28;19916;-67
2023/01/08 01:47:59;;;;;;;;;;;7.00;99.90;;;;;;5075507;28;19909;-68
2023/01/08 01:50:28;;;;;;;;;;;6.90;99.90;;;;;;5075182;28;19920;-68
2023/01/08 01:52:58;;;;;;;;;;;6.90;99.90;;;;;;5075194;28;20361;-69
2023/01/08 01:55:24;;;;;;;;;;;6.90;99.90;;;;;;5075146;28;19908;-68
2023/01/08 01:57:54;;;;;;;;;;;6.80;99.90;;;;;;5075136;28;19957;-68
2023/01/08 02:00:19;;;;;;;;;;;6.80;99.90;;;;;;5075369;28;19909;-69
2023/01/08 02:02:45;;;;;;;;;;;6.70;99.90;;;;;;5075006;28;19909;-69
2023/01/08 02:05:11;;;;;;;;;;;6.60;99.90;;;;;;5076002;28;19916;-69
2023/01/08 02:07:46;;;;;;;;;;;6.50;99.90;;;;;;5074707;28;20077;-68
2023/01/08 02:10:14;;;;;;;;;;;6.50;99.90;;;;;;5075337;28;19923;-68
2023/01/08 02:12:45;;;;;;;;;;;6.50;99.90;;;;;;5075086;28;19909;-68
2023/01/08 02:15:11;;;;;;;;;;;6.50;99.90;;;;;;5074776;28;19908;-68
2023/01/08 02:17:55;;;;;;;;;;;6.40;99.90;;;;;;5074753;28;19958;-68
2023/01/08 02:20:29;;;;;;;;;;;6.60;99.90;;;;;;5074837;28;19979;-68
2023/01/08 02:23:09;;;;;;;;;;;6.70;99.90;;;;;;5074605;28;19908;-69
2023/01/08 02:25:36;;;;;;;;;;;6.70;99.90;;;;;;5074609;28;19915;-68
2023/01/08 02:28:04;;;;;;;;;;;6.80;99.90;;;;;;5074707;28;19912;-69
2023/01/08 02:30:30;;;;;;;;;;;6.70;99.90;;;;;;5074648;28;19913;-68
2023/01/08 02:32:55;;;;;;;;;;;6.50;99.90;;;;;;5074364;28;19915;-69
2023/01/08 02:35:21;;;;;;;;;;;6.40;99.90;;;;;;5074638;28;19946;-69
2023/01/08 02:37:46;;;;;;;;;;;6.30;99.90;;;;;;5074317;28;19908;-68
2023/01/08 02:40:12;;;;;;;;;;;6.30;99.90;;;;;;5074369;28;19912;-68
2023/01/08 02:42:44;;;;;;;;;;;6.20;99.90;;;;;;5074497;28;19909;-67
2023/01/08 02:45:15;;;;;;;;;;;6.10;99.90;;;;;;5074178;28;20397;-69
2023/01/08 02:47:45;;;;;;;;;;;6.10;99.90;;;;;;5074153;28;20442;-68
2023/01/08 02:50:13;;;;;;;;;;;6.10;99.90;;;;;;5074058;28;19912;-68
2023/01/08 02:52:43;;;;;;;;;;;6.00;99.90;;;;;;5074388;28;19908;-68
2023/01/08 02:55:09;;;;;;;;;;;6.00;99.90;;;;;;5074625;28;19961;-68
2023/01/08 02:57:35;;;;;;;;;;;6.00;99.90;;;;;;5074025;28;19908;-68
2023/01/08 03:00:01;;;;;;;;;;;6.00;99.90;;;;;;5055938;28;19915;-68
2023/01/08 03:02:28;;;;;;;;;;;5.90;99.90;;;;;;5074531;28;19919;-69
2023/01/08 03:04:56;;;;;;;;;;;5.80;99.90;;;;;;5074198;28;19908;-68
2023/01/08 03:07:22;;;;;;;;;;;5.70;99.90;;;;;;5073999;28;19960;-69
2023/01/08 03:09:47;;;;;;;;;;;5.70;99.90;;;;;;5074319;28;19952;-69
2023/01/08 03:12:19;;;;;;;;;;;5.70;99.90;;;;;;5074115;28;20292;-69
2023/01/08 03:15:08;;;;;;;;;;;5.80;99.90;;;;;;5074073;28;20538;-69
2023/01/08 03:17:40;;;;;;;;;;;6.00;99.90;;;;;;5065401;28;19912;-69
2023/01/08 03:20:17;;;;;;;;;;;6.20;99.90;;;;;;5073639;28;20427;-68
2023/01/08 03:22:45;;;;;;;;;;;6.40;99.90;;;;;;5073748;28;20003;-68
2023/01/08 03:25:11;;;;;;;;;;;6.40;99.90;;;;;;5074020;28;19916;-69
2023/01/08 03:27:39;;;;;;;;;;;6.40;99.90;;;;;;5073955;28;20249;-69
2023/01/08 03:30:06;;;;;;;;;;;6.20;99.90;;;;;;5074163;28;19948;-69
2023/01/08 03:32:32;;;;;;;;;;;6.00;99.90;;;;;;5073060;28;19912;-69
2023/01/08 03:35:00;;;;;;;;;;;6.00;99.90;;;;;;5073623;28;19958;-68
2023/01/08 03:37:28;;;;;;;;;;;6.00;99.90;;;;;;5073588;28;20364;-68
2023/01/08 03:39:58;;;;;;;;;;;5.90;99.90;;;;;;5073525;28;19908;-69
2023/01/08 03:42:23;;;;;;;;;;;5.90;99.90;;;;;;5073531;28;19970;-68
2023/01/08 03:44:50;;;;;;;;;;;5.90;99.90;;;;;;5073781;28;19909;-68
2023/01/08 03:47:15;;;;;;;;;;;6.00;99.90;;;;;;5073528;28;20020;-68
2023/01/08 03:49:42;;;;;;;;;;;6.00;99.90;;;;;;5073440;28;20424;-69
2023/01/08 03:52:08;;;;;;;;;;;6.00;99.90;;;;;;5073715;28;20291;-69
2023/01/08 03:54:34;;;;;;;;;;;6.00;99.90;;;;;;5074004;28;19915;-69
2023/01/08 03:57:00;;;;;;;;;;;6.00;99.90;;;;;;5073361;28;19909;-69
2023/01/08 03:59:26;;;;;;;;;;;6.10;99.90;;;;;;5073639;28;19957;-69
2023/01/08 04:01:51;;;;;;;;;;;6.00;99.90;;;;;;5073308;28;19913;-69
2023/01/08 04:04:17;;;;;;;;;;;5.90;99.90;;;;;;5073902;28;20062;-69
2023/01/08 04:06:42;;;;;;;;;;;5.80;99.90;;;;;;5073094;28;19912;-68
2023/01/08 04:09:08;;;;;;;;;;;5.70;99.90;;;;;;5073502;28;19924;-68
2023/01/08 04:11:33;;;;;;;;;;;5.70;99.90;;;;;;5073216;28;19912;-68
2023/01/08 04:13:59;;;;;;;;;;;5.70;99.90;;;;;;5073486;28;19954;-69
2023/01/08 04:16:24;;;;;;;;;;;5.80;99.90;;;;;;5073206;28;19943;-69
2023/01/08 04:18:50;;;;;;;;;;;5.80;99.90;;;;;;5073501;28;19995;-69
2023/01/08 04:21:15;;;;;;;;;;;5.70;99.90;;;;;;5073160;28;19916;-69
2023/01/08 04:23:41;;;;;;;;;;;5.70;99.90;;;;;;5073092;28;19915;-68
2023/01/08 04:26:07;;;;;;;;;;;6.00;99.90;;;;;;5073074;28;20368;-69
2023/01/08 04:28:33;;;;;;;;;;;5.90;99.90;;;;;;5073409;28;19912;-68
2023/01/08 04:30:58;;;;;;;;;;;5.90;99.90;;;;;;5073288;28;20357;-69
2023/01/08 04:33:24;;;;;;;;;;;6.10;99.90;;;;;;5073287;28;20352;-69
2023/01/08 04:35:50;;;;;;;;;;;6.00;99.90;;;;;;5074093;28;19921;-69
2023/01/08 04:38:15;;;;;;;;;;;6.00;99.90;;;;;;5072993;28;19908;-68
2023/01/08 04:40:41;;;;;;;;;;;6.00;99.90;;;;;;5073156;28;19916;-69
2023/01/08 04:43:06;;;;;;;;;;;5.90;99.90;;;;;;5072972;28;19915;-69
2023/01/08 04:45:32;;;;;;;;;;;5.80;99.90;;;;;;5075352;28;19912;-69
2023/01/08 04:47:58;;;;;;;;;;;5.90;99.90;;;;;;5076728;28;19916;-69
2023/01/08 04:50:24;;;;;;;;;;;5.80;99.90;;;;;;5076601;28;20373;-68
2023/01/08 04:52:49;;;;;;;;;;;5.90;99.90;;;;;;5076393;28;20022;-69
2023/01/08 04:55:15;;;;;;;;;;;5.80;99.90;;;;;;5076359;28;19915;-69
2023/01/08 04:57:40;;;;;;;;;;;5.80;99.90;;;;;;5076880;28;19954;-69
2023/01/08 05:00:06;;;;;;;;;;;5.90;99.90;;;;;;5076307;28;19951;-69
2023/01/08 05:02:32;;;;;;;;;;;6.10;99.90;;;;;;5076211;28;19976;-68
2023/01/08 05:04:57;;;;;;;;;;;6.30;99.90;;;;;;5076755;28;19909;-68
2023/01/08 05:07:23;;;;;;;;;;;6.40;99.90;;;;;;5076108;28;20344;-69
2023/01/08 05:09:48;;;;;;;;;;;6.70;99.90;;;;;;5076279;28;19930;-69
2023/01/08 05:12:14;;;;;;;;;;;6.90;99.90;;;;;;5076021;28;19954;-68
2023/01/08 05:14:39;;;;;;;;;;;6.90;99.90;;;;;;5076289;28;19947;-69
2023/01/08 05:17:05;;;;;;;;;;;7.00;99.90;;;;;;5075960;28;19974;-68
2023/01/08 05:19:30;;;;;;;;;;;6.90;99.90;;;;;;5075947;28;20283;-68
2023/01/08 05:21:56;;;;;;;;;;;6.70;99.90;;;;;;5075878;28;19908;-69
2023/01/08 05:24:22;;;;;;;;;;;6.60;99.90;;;;;;5076336;28;19968;-68
2023/01/08 05:26:48;;;;;;;;;;;6.40;99.90;;;;;;5076082;28;19909;-69
2023/01/08 05:29:13;;;;;;;;;;;6.30;99.90;;;;;;5075944;28;19963;-69
2023/01/08 05:31:39;;;;;;;;;;;6.30;99.90;;;;;;5075706;28;19909;-69
2023/01/08 05:34:04;;;;;;;;;;;6.20;99.90;;;;;;5076234;28;19909;-68
2023/01/08 05:36:30;;;;;;;;;;;6.20;99.90;;;;;;5075628;28;19912;-69
2023/01/08 05:38:55;;;;;;;;;;;6.30;99.90;;;;;;5076137;28;19912;-68
2023/01/08 05:41:21;;;;;;;;;;;6.20;99.90;;;;;;5075432;28;19908;-69
2023/01/08 05:43:46;;;;;;;;;;;6.20;99.90;;;;;;5075998;28;20314;-69
2023/01/08 05:46:12;;;;;;;;;;;6.40;99.90;;;;;;5075348;28;19913;-68
2023/01/08 05:48:37;;;;;;;;;;;6.40;99.90;;;;;;5075313;28;19909;-69
2023/01/08 05:51:03;;;;;;;;;;;6.50;99.90;;;;;;5075484;28;19919;-69
2023/01/08 05:53:31;;;;;;;;;;;6.60;99.90;;;;;;5075206;28;19912;-69
2023/01/08 05:56:05;;;;;;;;;;;6.70;99.90;;;;;;5075333;28;19909;-69
2023/01/08 05:58:30;;;;;;;;;;;6.70;99.90;;;;;;5075478;28;19914;-69
2023/01/08 06:01:09;;;;;;;;;;;6.60;99.90;;;;;;5075391;28;19909;-69
2023/01/08 06:03:35;;;;;;;;;;;6.60;99.90;;;;;;5075001;28;19909;-69
2023/01/08 06:06:01;;;;;;;;;;;6.40;99.90;;;;;;5075277;28;19909;-69
2023/01/08 06:08:27;;;;;;;;;;;6.30;99.90;;;;;;5074499;28;20277;-68
2023/01/08 06:10:53;;;;;;;;;;;6.20;99.90;;;;;;5075367;28;19916;-69
2023/01/08 06:13:19;;;;;;;;;;;6.20;99.90;;;;;;5074813;28;20023;-69
2023/01/08 06:15:44;;;;;;;;;;;6.20;99.90;;;;;;5075050;28;19916;-69
2023/01/08 06:18:10;;;;;;;;;;;6.30;99.90;;;;;;5074731;28;19916;-67
2023/01/08 06:20:35;;;;;;;;;;;6.20;99.90;;;;;;5074959;28;19908;-68
2023/01/08 06:23:01;;;;;;;;;;;6.20;99.90;;;;;;5074666;28;19931;-69
2023/01/08 06:25:27;;;;;;;;;;;6.10;99.90;;;;;;5074862;28;20360;-69
2023/01/08 06:27:52;;;;;;;;;;;6.10;99.90;;;;;;5074851;28;19966;-69
2023/01/08 06:30:18;;;;;;;;;;;6.10;99.90;;;;;;5074387;28;19913;-68
2023/01/08 06:32:44;;;;;;;;;;;6.00;99.90;;;;;;5074462;28;19909;-67
2023/01/08 06:35:09;;;;;;;;;;;6.10;99.90;;;;;;5074969;28;20254;-68
2023/01/08 06:37:35;;;;;;;;;;;6.20;99.90;;;;;;5074923;28;19908;-68
2023/01/08 06:40:00;;;;;;;;;;;6.10;99.90;;;;;;5074234;28;19916;-69
2023/01/08 06:42:26;;;;;;;;;;;6.20;99.90;;;;;;5074816;28;19920;-68
2023/01/08 06:44:51;;;;;;;;;;;6.30;99.90;;;;;;5074236;28;19909;-68
2023/01/08 06:47:16;;;;;;;;;;;6.40;99.90;;;;;;5074455;28;20038;-69
2023/01/08 06:49:42;;;;;;;;;;;6.50;99.90;;;;;;5074078;28;19916;-69
2023/01/08 06:52:07;;;;;;;;;;;6.50;99.90;;;;;;5074108;28;19909;-68
2023/01/08 06:54:33;;;;;;;;;;;6.40;99.90;;;;;;5074317;28;19999;-69
2023/01/08 06:56:58;;;;;;;;;;;6.30;99.90;;;;;;5073986;28;19909;-68
2023/01/08 06:59:24;;;;;;;;;;;6.30;99.90;;;;;;5074009;28;19908;-69
2023/01/08 07:01:50;;;;;;;;;;;6.30;99.90;;;;;;5074575;28;19908;-68
2023/01/08 07:04:16;;;;;;;;;;;6.40;99.90;;;;;;5073956;28;19958;-68
2023/01/08 07:06:41;;;;;;;;;;;6.30;99.90;;;;;;5073641;28;19916;-69
2023/01/08 07:09:10;;;;;;;;;;;6.30;99.90;;;;;;5074083;28;19962;-69
2023/01/08 07:11:36;;;;;;;;;;;6.40;99.90;;;;;;5073835;28;20017;-68
2023/01/08 07:14:01;;;;;;;;;;;6.30;99.90;;;;;;5074120;28;19945;-69
2023/01/08 07:16:27;;;;;;;;;;;6.20;99.90;;;;;;5073828;28;19947;-69
2023/01/08 07:18:52;;;;;;;;;;;6.30;99.90;;;;;;5073800;28;19914;-69
2023/01/08 07:21:19;;;;;;;;;;;6.40;99.90;;;;;;5074296;28;19909;-69
2023/01/08 07:23:46;;;;;;;;;;;6.60;99.90;;;;;;5073679;28;20386;-69
2023/01/08 07:26:12;;;;;;;;;;;6.70;99.90;;;;;;5055777;28;19920;-68
2023/01/08 07:28:37;;;;;;;;;;;6.80;99.90;;;;;;5074004;28;19908;-69
2023/01/08 07:31:04;;;;;;;;;;;6.80;99.90;;;;;;5073632;28;19920;-69
2023/01/08 07:33:30;;;;;;;;;;;6.80;99.90;;;;;;5073874;28;19958;-69
2023/01/08 07:35:55;;;;;;;;;;;6.80;99.90;;;;;;5073573;28;19909;-68
2023/01/08 07:38:21;;;;;;;;;;;6.60;99.90;;;;;;5073574;28;20360;-68
2023/01/08 07:40:46;;;;;;;;;;;6.40;99.90;;;;;;5073451;28;20357;-69
2023/01/08 07:43:12;;;;;;;;;;;6.40;99.90;;;;;;5074087;28;19966;-68
2023/01/08 07:45:38;;;;;;;;;;;6.30;99.90;;;;;;5073551;28;19909;-69
2023/01/08 07:48:03;;;;;;;;;;;6.40;99.90;;;;;;5073489;28;20322;-67
2023/01/08 07:50:29;;;;;;;;;;;6.50;99.90;;;;;;5073419;28;19920;-68
2023/01/08 07:52:58;;;;;;;;;;;6.50;99.90;;;;;;5073452;28;19920;-68
2023/01/08 07:55:24;;;;;;;;;;;6.60;99.90;;;;;;5073729;28;19908;-69
2023/01/08 07:57:49;;;;;;;;;;;6.70;99.90;;;;;;5073404;28;19908;-69
2023/01/08 08:00:15;;;;;;;;;;;6.80;99.90;;;;;;5073624;28;19909;-69
2023/01/08 08:02:40;;;;;;;;;;;6.80;99.90;;;;;;5073346;28;19922;-68
2023/01/08 08:05:06;;;;;;;;;;;6.60;99.90;;;;;;5073321;28;19908;-69
2023/01/08 08:07:32;;;;;;;;;;;6.40;99.90;;;;;;5073114;28;19920;-69
2023/01/08 08:09:58;;;;;;;;;;;6.30;99.90;;;;;;5073776;28;20395;-68
2023/01/08 08:12:23;;;;;;;;;;;6.30;99.90;;;;;;5073502;28;20395;-69
2023/01/08 08:14:49;;;;;;;;;;;6.20;99.90;;;;;;5073194;28;19970;-69
2023/01/08 08:17:14;;;;;;;;;;;6.20;99.90;;;;;;5073478;28;19909;-68
2023/01/08 08:19:42;;;;;;;;;;;6.20;99.90;;;;;;5075624;28;20395;-68
2023/01/08 08:22:08;;;;;;;;;;;6.20;99.90;;;;;;5076946;28;19947;-68
2023/01/08 08:24:33;;;;;;;;;;;6.20;99.90;;;;;;5077210;28;19951;-68
2023/01/08 08:26:59;;;;;;;;;;;6.20;99.90;;;;;;5076865;28;19912;-69
2023/01/08 08:29:24;;;;;;;;;;;6.20;99.90;;;;;;5076762;28;19912;-69
2023/01/08 08:31:50;;;;;;;;;;;6.20;99.90;;;;;;5076785;28;20364;-69
2023/01/08 08:34:15;;;;;;;;;;;6.10;99.90;;;;;;5076686;28;19909;-68
2023/01/08 08:36:41;;;;;;;;;;;6.20;99.90;;;;;;5076877;28;19915;-68
2023/01/08 08:39:06;;;;;;;;;;;6.20;99.90;;;;;;5076461;28;19939;-69
2023/01/08 08:41:32;;;;;;;;;;;6.20;99.90;;;;;;5076668;28;19948;-69
2023/01/08 08:43:57;;;;;;;;;;;6.30;99.90;;;;;;5076874;28;20371;-68
2023/01/08 08:46:24;;;;;;;;;;;6.30;99.90;;;;;;5076718;28;19908;-69
2023/01/08 08:48:49;;;;;;;;;;;6.40;99.90;;;;;;5076705;28;19908;-69
2023/01/08 08:51:15;;;;;;;;;;;6.50;99.90;;;;;;5076660;28;19919;-69
2023/01/08 08:53:40;;;;;;;;;;;6.50;99.90;;;;;;5076396;28;19996;-68
2023/01/08 08:56:07;;;;;;;;;;;6.60;99.90;;;;;;5076653;28;19908;-69
2023/01/08 08:58:33;;;;;;;;;;;6.80;99.90;;;;;;5058142;28;20268;-69
2023/01/08 09:01:02;;;;;;;;;;;6.70;99.90;;;;;;5076882;28;19915;-68
2023/01/08 09:03:28;;;;;;;;;;;6.70;99.90;;;;;;5076255;28;20025;-69
2023/01/08 09:05:54;;;;;;;;;;;6.80;99.90;;;;;;5058184;28;20367;-68
2023/01/08 09:08:19;;;;;;;;;;;6.80;99.90;;;;;;5076003;28;19916;-69
2023/01/08 09:10:45;;;;;;;;;;;6.90;99.90;;;;;;5076026;28;19916;-69
2023/01/08 09:13:10;;;;;;;;;;;7.10;99.90;;;;;;5076049;28;20007;-68
2023/01/08 09:15:36;;;;;;;;;;;7.20;99.90;;;;;;5076308;28;19908;-69
2023/01/08 09:18:01;;;;;;;;;;;7.20;99.90;;;;;;5075985;28;19908;-68
2023/01/08 09:20:27;;;;;;;;;;;7.30;99.90;;;;;;5076192;28;20352;-69
2023/01/08 09:22:53;;;;;;;;;;;7.30;99.90;;;;;;5075858;28;20342;-69
2023/01/08 09:25:19;;;;;;;;;;;7.40;99.90;;;;;;5076101;28;19914;-68
2023/01/08 09:27:44;;;;;;;;;;;7.40;99.90;;;;;;5075798;28;19909;-69
2023/01/08 09:30:10;;;;;;;;;;;7.50;99.90;;;;;;5075409;28;19912;-69
2023/01/08 09:32:36;;;;;;;;;;;7.60;99.90;;;;;;5075676;28;20002;-69
2023/01/08 09:35:02;;;;;;;;;;;7.90;99.90;;;;;;5075936;28;19913;-69
2023/01/08 09:37:28;;;;;;;;;;;7.80;99.90;;;;;;5075877;28;20357;-68
2023/01/08 09:39:53;;;;;;;;;;;7.70;99.90;;;;;;5075470;28;19954;-69
2023/01/08 09:42:21;;;;;;;;;;;7.60;99.90;;;;;;5075815;28;19909;-68
2023/01/08 09:44:49;;;;;;;;;;;8.50;99.90;;;;;;5075458;28;19912;-69
2023/01/08 09:47:25;;;;;;;;;;;8.60;99.90;;;;;;5075662;28;19908;-69
2023/01/08 09:49:53;;;;;;;;;;;9.20;99.90;;;;;;5075289;28;19913;-69
2023/01/08 09:52:19;;;;;;;;;;;9.20;99.90;;;;;;5075850;28;19908;-69
2023/01/08 09:54:44;;;;;;;;;;;10.20;99.90;;;;;;5075563;28;19916;-69
2023/01/08 09:57:15;;;;;;;;;;;9.80;99.90;;;;;;5075205;28;20330;-69
2023/01/08 09:59:41;;;;;;;;;;;9.40;99.90;;;;;;5075403;28;20402;-69
2023/01/08 10:02:12;;;;;;;;;;;8.80;99.90;;;;;;5075364;28;19909;-69
2023/01/08 10:04:38;;;;;;;;;;;9.90;99.90;;;;;;5075365;28;19909;-69
2023/01/08 10:07:09;;;;;;;;;;;10.80;99.90;;;;;;5074968;28;20373;-69
2023/01/08 10:09:35;;;;;;;;;;;11.30;99.90;;;;;;5074852;28;19970;-68
2023/01/08 10:12:02;;;;;;;;;;;10.90;99.90;;;;;;5074866;28;19908;-69
2023/01/08 10:14:29;;;;;;;;;;;10.10;99.90;;;;;;5074816;28;20361;-69
2023/01/08 10:16:59;;;;;;;;;;;12.10;99.90;;;;;;5075398;28;19908;-69
2023/01/08 10:19:25;;;;;;;;;;;12.10;99.90;;;;;;5074807;28;19909;-68
2023/01/08 10:21:50;;;;;;;;;;;11.50;99.90;;;;;;5074700;28;20301;-69
2023/01/08 10:24:16;;;;;;;;;;;11.10;99.90;;;;;;5074652;28;19909;-69
2023/01/08 10:26:41;;;;;;;;;;;11.90;99.90;;;;;;5074568;28;19961;-70
2023/01/08 10:29:27;;;;;;;;;;;12.20;99.90;;;;;;5074468;28;20265;-70
2023/01/08 10:31:54;;;;;;;;;;;12.60;99.90;;;;;;5074661;28;19912;-69
2023/01/08 10:34:27;;;;;;;;;;;12.40;99.90;;;;;;5074447;28;19916;-70
2023/01/08 10:36:53;;;;;;;;;;;12.90;99.90;;;;;;5074650;28;19913;-69
2023/01/08 10:39:26;;;;;;;;;;;12.60;99.90;;;;;;5074310;28;19909;-70
2023/01/08 10:41:54;;;;;;;;;;;12.50;99.90;;;;;;5074292;28;19962;-69
2023/01/08 10:44:22;;;;;;;;;;;12.20;99.90;;;;;;5074562;28;19909;-69
2023/01/08 10:46:49;;;;;;;;;;;12.20;99.90;;;;;;5074222;28;19921;-69
2023/01/08 10:49:36;;;;;;;;;;;12.40;99.90;;;;;;5074151;28;19958;-70
2023/01/08 10:52:02;;;;;;;;;;;12.70;99.90;;;;;;5074377;28;19912;-70
2023/01/08 10:54:38;;;;;;;;;;;11.30;99.90;;;;;;5074120;28;20330;-68
2023/01/08 10:57:24;;;;;;;;;;;10.40;99.90;;;;;;5074134;28;19954;-69
2023/01/08 10:59:49;;;;;;;;;;;10.00;99.90;;;;;;5074397;28;19908;-69
2023/01/08 11:02:35;;;;;;;;;;;9.70;99.90;;;;;;5074006;28;19916;-69
2023/01/08 11:05:01;;;;;;;;;;;9.60;99.90;;;;;;5074004;28;20284;-69
2023/01/08 11:07:27;;;;;;;;;;;9.90;99.90;;;;;;5073809;28;19928;-69
2023/01/08 11:09:53;;;;;;;;;;;9.90;99.90;;;;;;5073832;28;19931;-69
2023/01/08 11:12:20;;;;;;;;;;;9.90;99.90;;;;;;5073077;28;21350;-69
2023/01/08 11:14:46;;;;;;;;;;;9.70;99.90;;;;;;5074427;28;19909;-69
2023/01/08 11:17:12;;;;;;;;;;;10.70;99.90;;;;;;5074128;28;20020;-68
2023/01/08 11:19:38;;;;;;;;;;;11.50;99.90;;;;;;5073712;28;19958;-69
2023/01/08 11:22:07;;;;;;;;;;;11.20;99.90;;;;;;5073762;28;19979;-69
2023/01/08 11:24:35;;;;;;;;;;;11.80;99.90;;;;;;5073996;28;19943;-69
2023/01/08 11:27:09;;;;;;;;;;;11.30;99.90;;;;;;5073712;28;19909;-69
2023/01/08 11:29:43;;;;;;;;;;;12.70;99.90;;;;;;5073621;28;19913;-69
2023/01/08 11:32:08;;;;;;;;;;;11.30;99.90;;;;;;5073639;28;19909;-69
2023/01/08 11:34:37;;;;;;;;;;;11.00;99.90;;;;;;5073627;28;20331;-70
2023/01/08 11:37:19;;;;;;;;;;;11.10;99.90;;;;;;5073631;28;19919;-69
2023/01/08 11:39:45;;;;;;;;;;;10.80;99.90;;;;;;5073826;28;20016;-69
2023/01/08 11:42:30;;;;;;;;;;;10.70;99.90;;;;;;5073558;28;19950;-69
2023/01/08 11:44:55;;;;;;;;;;;10.70;99.90;;;;;;5073810;28;20379;-68
2023/01/08 11:47:29;;;;;;;;;;;10.50;99.90;;;;;;5074079;28;19909;-69
2023/01/08 11:49:57;;;;;;;;;;;10.50;99.90;;;;;;5073451;28;19919;-69
2023/01/08 11:52:29;;;;;;;;;;;10.60;99.90;;;;;;5074066;28;19920;-69
2023/01/08 11:54:58;;;;;;;;;;;10.60;99.90;;;;;;5076891;28;19908;-69
2023/01/08 11:57:23;;;;;;;;;;;10.80;99.90;;;;;;5078104;28;19909;-69
2023/01/08 11:59:55;;;;;;;;;;;11.00;99.90;;;;;;5077499;28;19908;-69
2023/01/08 12:02:38;;;;;;;;;;;11.10;99.90;;;;;;5077368;28;20281;-69
2023/01/08 12:05:04;;;;;;;;;;;11.40;99.90;;;;;;5077357;28;20261;-70
2023/01/08 12:07:49;;;;;;;;;;;11.50;99.90;;;;;;5077083;28;19920;-69
2023/01/08 12:10:25;;;;;;;;;;;11.40;99.90;;;;;;5077725;28;20249;-68
2023/01/08 12:13:05;;;;;;;;;;;11.40;99.90;;;;;;5077208;28;19908;-70
2023/01/08 12:15:47;;;;;;;;;;;11.30;99.90;;;;;;5077365;28;20057;-69
2023/01/08 12:18:18;;;;;;;;;;;11.10;99.90;;;;;;5077672;28;19912;-70
2023/01/08 12:20:49;;;;;;;;;;;10.90;99.90;;;;;;5077584;28;19934;-69
2023/01/08 12:23:35;;;;;;;;;;;10.80;99.90;;;;;;5076971;28;20376;-69
2023/01/08 12:26:10;;;;;;;;;;;10.70;99.90;;;;;;5065922;28;19909;-69
2023/01/08 12:28:35;;;;;;;;;;;10.60;99.90;;;;;;5077198;28;19908;-69
2023/01/08 12:31:13;;;;;;;;;;;10.50;99.90;;;;;;5077024;28;20375;-69
2023/01/08 12:33:42;;;;;;;;;;;10.30;99.90;;;;;;5076796;28;19935;-69
2023/01/08 12:36:09;;;;;;;;;;;10.10;99.90;;;;;;5076703;28;19959;-69
2023/01/08 12:38:38;;;;;;;;;;;10.00;99.90;;;;;;5077268;28;20353;-69
2023/01/08 12:41:05;;;;;;;;;;;10.00;99.90;;;;;;5076635;28;19908;-68
2023/01/08 12:43:34;;;;;;;;;;;10.10;99.90;;;;;;5077203;28;20356;-70
2023/01/08 12:46:01;;;;;;;;;;;10.30;99.90;;;;;;5076604;28;19942;-68
2023/01/08 12:48:28;;;;;;;;;;;10.20;99.90;;;;;;5076529;28;19912;-69
2023/01/08 12:50:53;;;;;;;;;;;10.10;99.90;;;;;;5076738;28;19912;-70
2023/01/08 12:53:19;;;;;;;;;;;10.20;99.90;;;;;;5076474;28;19908;-69
2023/01/08 12:55:50;;;;;;;;;;;10.30;99.90;;;;;;5076609;28;19909;-69
2023/01/08 12:58:25;;;;;;;;;;;10.40;99.90;;;;;;5076375;28;19909;-69
2023/01/08 13:01:14;;;;;;;;;;;10.50;99.90;;;;;;5076244;28;19908;-69
2023/01/08 13:03:39;;;;;;;;;;;11.00;99.90;;;;;;5067863;28;19916;-69
2023/01/08 13:06:13;;;;;;;;;;;11.40;99.90;;;;;;5075514;28;19909;-70
2023/01/08 13:08:39;;;;;;;;;;;11.60;99.90;;;;;;5076057;28;20300;-70
2023/01/08 13:11:06;;;;;;;;;;;11.70;99.90;;;;;;5076382;28;19924;-70
2023/01/08 13:13:34;;;;;;;;;;;11.70;99.90;;;;;;5076106;28;20261;-69
2023/01/08 13:16:13;;;;;;;;;;;11.50;99.90;;;;;;5076292;28;19908;-70
2023/01/08 13:18:39;;;;;;;;;;;11.40;99.90;;;;;;5076294;28;19916;-69
2023/01/08 13:21:06;;;;;;;;;;;11.50;99.90;;;;;;5075977;28;19909;-69
2023/01/08 13:23:33;;;;;;;;;;;11.70;99.90;;;;;;5076217;28;19991;-69
2023/01/08 13:26:00;;;;;;;;;;;11.50;99.90;;;;;;5075885;28;19915;-69
2023/01/08 13:28:26;;;;;;;;;;;11.50;99.90;;;;;;5075797;28;19909;-69
2023/01/08 13:30:54;;;;;;;;;;;11.60;99.90;;;;;;5075911;28;19912;-68
2023/01/08 13:33:26;;;;;;;;;;;11.60;99.90;;;;;;5076542;28;19915;-69
2023/01/08 13:36:12;;;;;;;;;;;11.60;99.90;;;;;;5075676;28;19909;-69
2023/01/08 13:38:39;;;;;;;;;;;11.80;99.90;;;;;;5075050;28;19909;-69
2023/01/08 13:41:04;;;;;;;;;;;12.00;99.90;;;;;;5075478;28;19915;-70
2023/01/08 13:43:34;;;;;;;;;;;11.60;99.90;;;;;;5075537;28;19908;-69
2023/01/08 13:45:59;;;;;;;;;;;11.30;99.90;;;;;;5075482;28;20368;-70
2023/01/08 13:48:26;;;;;;;;;;;11.10;99.90;;;;;;5075987;28;19999;-69
2023/01/08 13:50:52;;;;;;;;;;;11.00;99.90;;;;;;5075568;28;19931;-69
2023/01/08 13:53:18;;;;;;;;;;;10.50;99.90;;;;;;5075555;28;19909;-69
2023/01/08 13:55:53;;;;;;;;;;;9.70;99.90;;;;;;5075567;28;19915;-69
2023/01/08 13:58:22;;;;;;;;;;;9.10;99.90;;;;;;5075217;28;19915;-69
2023/01/08 14:00:49;;;;;;;;;;;9.10;99.90;;;;;;5075158;28;19912;-69
2023/01/08 14:03:29;;;;;;;;;;;9.00;99.90;;;;;;5075422;28;19958;-69
2023/01/08 14:06:04;;;;;;;;;;;9.00;99.90;;;;;;5075059;28;19958;-70
2023/01/08 14:08:30;;;;;;;;;;;8.90;99.90;;;;;;5074627;28;19960;-70
2023/01/08 14:10:56;;;;;;;;;;;9.00;99.90;;;;;;5074888;28;19967;-69
2023/01/08 14:13:33;;;;;;;;;;;9.30;99.90;;;;;;5075469;28;20357;-69
2023/01/08 14:16:01;;;;;;;;;;;9.30;99.90;;;;;;5075029;28;19916;-69
2023/01/08 14:18:27;;;;;;;;;;;9.30;99.90;;;;;;5075016;28;20404;-69
2023/01/08 14:20:53;;;;;;;;;;;9.10;99.90;;;;;;5074736;28;19912;-69
2023/01/08 14:23:22;;;;;;;;;;;9.00;99.90;;;;;;5075001;28;20368;-69
2023/01/08 14:25:48;;;;;;;;;;;9.00;99.90;;;;;;5074990;28;19908;-69
2023/01/08 14:28:16;;;;;;;;;;;8.90;99.90;;;;;;5074889;28;19915;-69